createdAt,value
2023-08-20T00:00:56.770Z,19.20
2023-08-20T00:03:23.972Z,22.98
2023-08-20T00:05:51.065Z,22.85
2023-08-20T00:08:17.971Z,26.05
2023-08-20T00:10:44.834Z,24.13
2023-08-20T00:13:11.576Z,25.17
2023-08-20T00:15:38.604Z,25.83
2023-08-20T00:18:08.197Z,24.92
2023-08-20T00:20:39.080Z,20.33
2023-08-20T00:23:06.204Z,20.73
2023-08-20T00:25:36.576Z,23.75
2023-08-20T00:28:03.842Z,23.10
2023-08-20T00:30:30.731Z,33.00
2023-08-20T00:32:59.820Z,29.00
2023-08-20T00:35:26.678Z,25.70
2023-08-20T00:37:53.413Z,26.20
2023-08-20T00:40:20.331Z,25.00
2023-08-20T00:42:46.999Z,23.25
2023-08-20T00:45:13.752Z,23.88
2023-08-20T00:47:41.505Z,30.50
2023-08-20T00:50:11.701Z,22.45
2023-08-20T00:52:39.561Z,28.15
2023-08-20T00:55:11.729Z,28.35
2023-08-20T00:57:39.788Z,27.38
2023-08-20T01:00:13.317Z,20.67
2023-08-20T01:02:42.896Z,22.70
2023-08-20T01:05:15.857Z,20.95
2023-08-20T01:07:55.377Z,21.27
2023-08-20T01:10:44.918Z,27.08
2023-08-20T01:13:12.571Z,20.10
2023-08-20T01:15:40.057Z,20.50
2023-08-20T01:18:11.119Z,25.27
2023-08-20T01:20:46.743Z,25.75
2023-08-20T01:23:39.328Z,25.23
2023-08-20T01:26:21.967Z,22.10
2023-08-20T01:28:48.741Z,23.17
2023-08-20T01:31:16.683Z,23.80
2023-08-20T01:33:46.711Z,22.55
2023-08-20T01:36:18.310Z,33.42
2023-08-20T01:38:45.382Z,19.15
2023-08-20T01:41:12.185Z,18.08
2023-08-20T01:43:41.948Z,21.90
2023-08-20T01:46:15.908Z,22.63
2023-08-20T01:48:42.765Z,25.15
2023-08-20T01:51:11.825Z,24.98
2023-08-20T01:53:38.664Z,22.27
2023-08-20T01:56:09.860Z,23.60
2023-08-20T01:58:41.680Z,20.17
2023-08-20T02:03:37.391Z,30.85
2023-08-20T02:06:04.432Z,25.05
2023-08-20T02:08:31.355Z,19.23
2023-08-20T02:11:02.935Z,19.05
2023-08-20T02:13:30.045Z,21.48
2023-08-20T02:16:04.959Z,25.48
2023-08-20T02:18:32.349Z,20.05
2023-08-20T02:20:59.820Z,19.02
2023-08-20T02:23:34.646Z,20.60
2023-08-20T02:26:07.047Z,22.60
2023-08-20T02:28:33.836Z,21.35
2023-08-20T02:31:07.417Z,24.38
2023-08-20T02:33:41.320Z,23.17
2023-08-20T02:36:08.178Z,20.63
2023-08-20T02:38:34.844Z,22.55
2023-08-20T02:41:04.606Z,30.10
2023-08-20T02:43:35.021Z,24.02
2023-08-20T02:46:03.743Z,17.95
2023-08-20T02:48:31.356Z,24.58
2023-08-20T02:51:04.765Z,19.27
2023-08-20T02:53:31.549Z,22.73
2023-08-20T02:55:58.191Z,19.27
2023-08-20T02:58:24.960Z,20.83
2023-08-20T03:00:51.656Z,21.75
2023-08-20T03:03:19.970Z,20.88
2023-08-20T03:05:47.834Z,26.13
2023-08-20T03:08:14.637Z,21.55
2023-08-20T03:10:41.412Z,22.73
2023-08-20T03:13:08.225Z,19.67
2023-08-20T03:15:35.056Z,22.15
2023-08-20T03:18:01.890Z,25.98
2023-08-20T03:20:29.669Z,23.30
2023-08-20T03:22:56.220Z,24.65
2023-08-20T03:25:24.803Z,29.35
2023-08-20T03:27:53.362Z,27.30
2023-08-20T03:30:20.347Z,20.58
2023-08-20T03:32:47.274Z,20.10
2023-08-20T03:35:17.223Z,27.05
2023-08-20T03:37:43.927Z,26.33
2023-08-20T03:40:16.588Z,23.45
2023-08-20T03:42:43.900Z,23.27
2023-08-20T03:45:10.750Z,24.23
2023-08-20T03:47:38.369Z,22.67
2023-08-20T03:50:10.891Z,25.50
2023-08-20T03:52:37.625Z,24.60
2023-08-20T03:55:04.663Z,26.23
2023-08-20T03:57:31.283Z,32.92
2023-08-20T03:59:58.120Z,26.13
2023-08-20T04:02:32.638Z,30.90
2023-08-20T04:04:59.748Z,29.33
2023-08-20T04:07:26.766Z,26.17
2023-08-20T04:09:53.484Z,32.38
2023-08-20T04:12:20.099Z,28.77
2023-08-20T04:14:48.905Z,32.00
2023-08-20T04:17:15.614Z,27.83
2023-08-20T04:19:42.534Z,28.25
2023-08-20T04:22:09.170Z,37.97
2023-08-20T04:24:36.000Z,30.23
2023-08-20T04:27:02.687Z,23.95
2023-08-20T04:29:29.686Z,27.90
2023-08-20T04:31:56.478Z,28.40
2023-08-20T04:34:23.161Z,31.45
2023-08-20T04:36:49.970Z,30.55
2023-08-20T04:39:16.689Z,30.20
2023-08-20T04:41:43.339Z,32.03
2023-08-20T04:44:10.614Z,27.73
2023-08-20T04:46:46.219Z,29.75
2023-08-20T04:49:15.972Z,30.27
2023-08-20T04:51:43.022Z,31.45
2023-08-20T04:54:09.756Z,23.95
2023-08-20T04:56:36.778Z,26.30
2023-08-20T04:59:09.386Z,33.03
2023-08-20T05:01:36.029Z,26.70
2023-08-20T05:04:02.826Z,30.40
2023-08-20T05:06:29.989Z,27.08
2023-08-20T05:08:56.666Z,27.67
2023-08-20T05:11:23.502Z,32.03
2023-08-20T05:13:51.321Z,32.63
2023-08-20T05:16:18.098Z,29.65
2023-08-20T05:18:44.709Z,28.27
2023-08-20T05:21:14.548Z,26.98
2023-08-20T05:23:46.676Z,25.98
2023-08-20T05:26:13.479Z,28.55
2023-08-20T05:28:40.112Z,25.63
2023-08-20T05:31:06.888Z,33.45
2023-08-20T05:33:33.966Z,29.65
2023-08-20T05:36:01.565Z,33.03
2023-08-20T05:38:28.394Z,28.25
2023-08-20T05:40:55.146Z,25.88
2023-08-20T05:43:21.951Z,28.13
2023-08-20T05:45:49.837Z,26.45
2023-08-20T05:48:22.336Z,24.50
2023-08-20T05:50:49.137Z,28.92
2023-08-20T05:53:15.837Z,26.20
2023-08-20T05:55:42.681Z,22.25
2023-08-20T05:58:09.543Z,22.30
2023-08-20T06:00:38.683Z,23.95
2023-08-20T06:03:10.902Z,23.35
2023-08-20T06:05:37.807Z,23.25
2023-08-20T06:08:04.887Z,26.92
2023-08-20T06:10:31.984Z,24.15
2023-08-20T06:12:58.793Z,24.38
2023-08-20T06:15:25.510Z,24.48
2023-08-20T06:17:52.176Z,21.33
2023-08-20T06:20:20.038Z,18.63
2023-08-20T06:22:54.332Z,28.50
2023-08-20T06:25:21.157Z,31.40
2023-08-20T06:27:47.965Z,23.25
2023-08-20T06:30:14.700Z,21.20
2023-08-20T06:32:41.535Z,23.15
2023-08-20T06:35:10.320Z,19.35
2023-08-20T06:37:37.784Z,24.42
2023-08-20T06:40:05.286Z,18.10
2023-08-20T06:42:32.023Z,21.77
2023-08-20T06:44:59.044Z,18.45
2023-08-20T06:47:28.619Z,28.13
2023-08-20T06:49:56.837Z,21.08
2023-08-20T06:52:23.918Z,21.77
2023-08-20T06:54:50.759Z,19.90
2023-08-20T06:57:18.915Z,22.08
2023-08-20T06:59:45.660Z,26.20
2023-08-20T07:02:12.532Z,16.27
2023-08-20T07:04:39.324Z,19.50
2023-08-20T07:07:06.107Z,18.70
2023-08-20T07:09:32.938Z,24.17
2023-08-20T07:12:00.051Z,24.92
2023-08-20T07:14:26.759Z,18.02
2023-08-20T07:16:53.416Z,24.75
2023-08-20T07:19:22.707Z,28.10
2023-08-20T07:21:54.908Z,21.05
2023-08-20T07:24:26.711Z,23.10
2023-08-20T07:26:53.861Z,24.02
2023-08-20T07:29:27.097Z,21.50
2023-08-20T07:31:54.127Z,20.35
2023-08-20T07:34:20.768Z,19.83
2023-08-20T07:36:54.154Z,23.52
2023-08-20T07:39:20.826Z,21.75
2023-08-20T07:41:47.610Z,18.27
2023-08-20T07:44:17.140Z,26.20
2023-08-20T07:46:43.883Z,20.63
2023-08-20T07:49:10.754Z,24.17
2023-08-20T07:51:37.444Z,21.30
2023-08-20T07:54:04.311Z,21.42
2023-08-20T07:56:31.300Z,24.67
2023-08-20T07:58:58.110Z,20.65
2023-08-20T08:01:27.745Z,25.40
2023-08-20T08:03:54.542Z,26.70
2023-08-20T08:06:24.368Z,23.27
2023-08-20T08:08:51.149Z,24.33
2023-08-20T08:11:17.860Z,22.17
2023-08-20T08:13:44.771Z,29.45
2023-08-20T08:16:11.432Z,23.05
2023-08-20T08:18:38.386Z,26.77
2023-08-20T08:21:12.230Z,22.33
2023-08-20T08:23:38.908Z,26.40
2023-08-20T08:26:05.661Z,24.25
2023-08-20T08:28:32.776Z,28.20
2023-08-20T08:30:59.473Z,20.70
2023-08-20T08:33:26.232Z,22.23
2023-08-20T08:35:53.134Z,22.38
2023-08-20T08:38:19.887Z,25.60
2023-08-20T08:40:47.048Z,23.42
2023-08-20T08:43:17.864Z,22.67
2023-08-20T08:48:18.360Z,25.00
2023-08-20T08:50:45.079Z,26.48
2023-08-20T08:53:11.755Z,26.17
2023-08-20T08:55:42.519Z,22.33
2023-08-20T08:58:10.261Z,24.08
2023-08-20T09:00:37.016Z,27.58
2023-08-20T09:03:06.281Z,27.58
2023-08-20T09:05:32.953Z,28.30
2023-08-20T09:07:59.770Z,25.55
2023-08-20T09:10:32.740Z,30.48
2023-08-20T09:12:59.636Z,24.48
2023-08-20T09:15:34.449Z,27.13
2023-08-20T09:18:04.382Z,23.00
2023-08-20T09:20:38.137Z,27.95
2023-08-20T09:23:11.657Z,26.75
2023-08-20T09:25:38.559Z,22.55
2023-08-20T09:28:05.805Z,34.90
2023-08-20T09:30:33.105Z,27.85
2023-08-20T09:33:14.831Z,24.10
2023-08-20T09:35:52.026Z,29.35
2023-08-20T09:38:23.254Z,25.17
2023-08-20T09:40:57.548Z,25.20
2023-08-20T09:43:30.369Z,26.08
2023-08-20T09:45:58.528Z,24.08
2023-08-20T09:48:29.490Z,22.52
2023-08-20T09:53:48.338Z,27.00
2023-08-20T09:56:35.900Z,27.25
2023-08-20T09:59:03.725Z,22.13
2023-08-20T10:01:32.250Z,22.35
2023-08-20T10:03:59.587Z,21.40
2023-08-20T10:06:26.935Z,26.50
2023-08-20T10:08:55.113Z,23.75
2023-08-20T10:11:22.037Z,24.33
2023-08-20T10:13:49.048Z,20.90
2023-08-20T10:16:25.258Z,20.80
2023-08-20T10:18:52.329Z,26.30
2023-08-20T10:21:19.145Z,24.90
2023-08-20T10:23:50.567Z,22.63
2023-08-20T10:26:23.154Z,23.83
2023-08-20T10:28:52.913Z,22.88
2023-08-20T10:31:22.743Z,20.38
2023-08-20T10:33:55.487Z,20.50
2023-08-20T10:36:27.413Z,22.80
2023-08-20T10:39:02.079Z,22.48
2023-08-20T10:41:36.465Z,20.45
2023-08-20T10:44:03.543Z,23.35
2023-08-20T10:46:36.186Z,23.85
2023-08-20T10:49:07.397Z,20.40
2023-08-20T10:51:36.688Z,21.17
2023-08-20T10:54:04.892Z,19.35
2023-08-20T10:56:49.103Z,21.08
2023-08-20T10:59:29.134Z,24.63
2023-08-20T11:02:04.037Z,18.02
2023-08-20T11:04:36.065Z,19.73
2023-08-20T11:07:03.177Z,26.55
2023-08-20T11:09:31.569Z,27.02
2023-08-20T11:11:59.670Z,18.95
2023-08-20T11:14:26.513Z,17.83
2023-08-20T11:16:53.328Z,17.95
2023-08-20T11:19:22.058Z,23.85
2023-08-20T11:21:49.940Z,19.27
2023-08-20T11:24:21.829Z,19.35
2023-08-20T11:26:50.342Z,17.50
2023-08-20T11:29:22.438Z,25.55
2023-08-20T11:31:50.938Z,19.00
2023-08-20T11:34:19.437Z,20.35
2023-08-20T11:36:46.250Z,17.83
2023-08-20T11:39:13.130Z,18.17
2023-08-20T11:41:41.887Z,18.85
2023-08-20T11:44:12.090Z,20.02
2023-08-20T11:46:50.419Z,22.42
2023-08-20T11:49:17.312Z,32.35
2023-08-20T11:51:46.809Z,20.50
2023-08-20T11:54:16.029Z,20.07
2023-08-20T11:56:50.814Z,26.98
2023-08-20T11:59:20.261Z,25.70
2023-08-20T12:01:58.714Z,21.97
2023-08-20T12:04:27.603Z,20.95
2023-08-20T12:07:10.430Z,23.65
2023-08-20T12:09:37.556Z,21.77
2023-08-20T12:12:07.573Z,19.15
2023-08-20T12:14:35.040Z,26.77
2023-08-20T12:17:02.023Z,20.55
2023-08-20T12:19:28.925Z,18.60
2023-08-20T12:21:55.872Z,17.60
2023-08-20T12:24:22.775Z,17.83
2023-08-20T12:26:49.570Z,18.50
2023-08-20T12:29:17.383Z,27.23
2023-08-20T12:31:44.494Z,22.67
2023-08-20T12:34:11.459Z,17.48
2023-08-20T12:36:46.161Z,17.63
2023-08-20T12:39:17.703Z,18.40
2023-08-20T12:41:46.501Z,15.82
2023-08-20T12:44:13.373Z,20.83
2023-08-20T12:46:40.199Z,19.10
2023-08-20T12:49:07.071Z,19.38
2023-08-20T12:51:33.852Z,19.90
2023-08-20T12:54:01.245Z,18.38
2023-08-20T12:56:27.933Z,20.52
2023-08-20T12:58:54.706Z,17.17
2023-08-20T13:01:21.524Z,17.50
2023-08-20T13:03:49.794Z,20.75
2023-08-20T13:06:18.112Z,16.65
2023-08-20T13:08:45.255Z,19.58
2023-08-20T13:11:18.014Z,16.35
2023-08-20T13:13:45.191Z,21.63
2023-08-20T13:16:12.289Z,17.80
2023-08-20T13:18:39.440Z,19.08
2023-08-20T13:21:06.182Z,20.65
2023-08-20T13:23:32.990Z,15.48
2023-08-20T13:25:59.771Z,14.45
2023-08-20T13:28:31.817Z,14.82
2023-08-20T13:30:58.454Z,15.38
2023-08-20T13:33:25.235Z,15.55
2023-08-20T13:35:53.647Z,18.15
2023-08-20T13:38:22.820Z,16.63
2023-08-20T13:40:50.080Z,17.05
2023-08-20T13:43:16.735Z,15.30
2023-08-20T13:45:51.740Z,17.65
2023-08-20T13:48:18.632Z,15.23
2023-08-20T13:50:45.361Z,22.67
2023-08-20T13:53:12.125Z,16.95
2023-08-20T13:55:39.085Z,14.93
2023-08-20T13:58:07.186Z,16.50
2023-08-20T14:00:35.427Z,16.80
2023-08-20T14:03:04.790Z,19.27
2023-08-20T14:05:31.510Z,22.35
2023-08-20T14:07:58.370Z,17.73
2023-08-20T14:10:25.251Z,14.30
2023-08-20T14:12:52.125Z,14.07
2023-08-20T14:15:18.818Z,14.32
2023-08-20T14:17:46.616Z,15.20
2023-08-20T14:20:14.784Z,15.25
2023-08-20T14:22:42.789Z,18.88
2023-08-20T14:25:12.306Z,15.07
2023-08-20T14:27:39.969Z,17.67
2023-08-20T14:30:09.140Z,14.65
2023-08-20T14:32:38.317Z,17.48
2023-08-20T14:35:11.254Z,15.05
2023-08-20T14:40:07.758Z,16.20
2023-08-20T14:42:35.215Z,14.57
2023-08-20T14:45:02.151Z,17.35
2023-08-20T14:47:28.806Z,25.50
2023-08-20T14:49:55.518Z,17.00
2023-08-20T14:52:22.164Z,15.02
2023-08-20T14:54:48.915Z,13.90
2023-08-20T14:57:18.333Z,12.77
2023-08-20T14:59:45.198Z,25.67
2023-08-20T15:02:11.875Z,13.55
2023-08-20T15:04:38.551Z,13.68
2023-08-20T15:07:05.340Z,13.10
2023-08-20T15:09:36.616Z,13.23
2023-08-20T15:12:03.958Z,13.95
2023-08-20T15:14:30.810Z,14.35
2023-08-20T15:16:57.547Z,13.70
2023-08-20T15:19:24.181Z,12.68
2023-08-20T15:21:52.997Z,13.32
2023-08-20T15:24:19.559Z,12.35
2023-08-20T15:26:46.249Z,12.32
2023-08-20T15:29:14.361Z,13.48
2023-08-20T15:31:42.149Z,16.05
2023-08-20T15:34:08.836Z,15.65
2023-08-20T15:36:43.798Z,13.35
2023-08-20T15:39:10.497Z,13.50
2023-08-20T15:41:37.628Z,14.88
2023-08-20T15:44:04.471Z,19.00
2023-08-20T15:46:31.427Z,17.13
2023-08-20T15:48:58.290Z,23.92
2023-08-20T15:51:25.977Z,14.93
2023-08-20T15:53:52.679Z,14.00
2023-08-20T15:56:19.393Z,16.23
2023-08-20T15:58:48.879Z,17.10
2023-08-20T16:01:16.542Z,14.35
2023-08-20T16:03:46.724Z,15.77
2023-08-20T16:06:15.022Z,17.67
2023-08-20T16:08:41.758Z,14.13
2023-08-20T16:11:09.283Z,15.55
2023-08-20T16:13:36.010Z,13.80
2023-08-20T16:16:02.735Z,16.13
2023-08-20T16:18:34.048Z,17.90
2023-08-20T16:21:01.982Z,14.38
2023-08-20T16:23:29.143Z,20.27
2023-08-20T16:25:55.882Z,17.73
2023-08-20T16:28:22.548Z,18.05
2023-08-20T16:30:49.391Z,18.23
2023-08-20T16:33:16.358Z,17.25
2023-08-20T16:35:50.536Z,16.33
2023-08-20T16:38:17.603Z,14.25
2023-08-20T16:40:51.502Z,14.27
2023-08-20T16:43:18.907Z,13.93
2023-08-20T16:45:46.053Z,16.30
2023-08-20T16:48:15.829Z,13.77
2023-08-20T16:50:42.489Z,14.98
2023-08-20T16:53:12.252Z,19.42
2023-08-20T16:55:38.981Z,23.07
2023-08-20T16:58:05.809Z,13.63
2023-08-20T17:03:08.157Z,13.25
2023-08-20T17:05:34.934Z,14.90
2023-08-20T17:08:02.385Z,15.18
2023-08-20T17:10:32.248Z,17.23
2023-08-20T17:12:59.784Z,12.98
2023-08-20T17:15:29.693Z,13.32
2023-08-20T17:18:00.072Z,15.93
2023-08-20T17:20:27.139Z,13.85
2023-08-20T17:22:53.879Z,13.02
2023-08-20T17:25:23.523Z,13.93
2023-08-20T17:27:50.262Z,13.93
2023-08-20T17:30:16.956Z,15.27
2023-08-20T17:32:50.111Z,18.83
2023-08-20T17:35:17.522Z,20.27
2023-08-20T17:37:44.275Z,13.15
2023-08-20T17:40:18.851Z,17.77
2023-08-20T17:42:45.658Z,14.43
2023-08-20T17:45:12.408Z,16.85
2023-08-20T17:47:39.572Z,13.13
2023-08-20T17:50:07.101Z,16.08
2023-08-20T17:52:36.437Z,14.27
2023-08-20T17:55:04.362Z,15.13
2023-08-20T17:57:31.403Z,15.55
2023-08-20T17:59:58.440Z,14.10
2023-08-20T18:02:25.288Z,15.85
2023-08-20T18:04:52.861Z,15.20
2023-08-20T18:07:23.950Z,18.60
2023-08-20T18:09:50.718Z,18.70
2023-08-20T18:12:17.525Z,18.77
2023-08-20T18:14:44.143Z,17.60
2023-08-20T18:17:10.972Z,22.05
2023-08-20T18:19:42.313Z,21.60
2023-08-20T18:22:09.176Z,16.48
2023-08-20T18:24:35.960Z,22.65
2023-08-20T18:27:05.265Z,25.42
2023-08-20T18:29:32.046Z,18.52
2023-08-20T18:31:58.815Z,17.13
2023-08-20T18:34:28.924Z,18.75
2023-08-20T18:36:59.624Z,26.08
2023-08-20T18:39:26.771Z,18.90
2023-08-20T18:41:53.711Z,18.33
2023-08-20T18:44:20.573Z,17.25
2023-08-20T18:46:50.377Z,19.45
2023-08-20T18:49:18.967Z,15.80
2023-08-20T18:51:49.334Z,15.25
2023-08-20T18:54:16.935Z,17.97
2023-08-20T18:56:45.608Z,22.08
2023-08-20T18:59:12.367Z,22.35
2023-08-20T19:01:39.039Z,17.60
2023-08-20T19:04:05.976Z,22.15
2023-08-20T19:06:32.954Z,21.80
2023-08-20T19:08:59.818Z,25.13
2023-08-20T19:11:26.564Z,19.08
2023-08-20T19:13:55.933Z,20.73
2023-08-20T19:16:23.466Z,22.13
2023-08-20T19:18:52.268Z,18.67
2023-08-20T19:21:21.913Z,19.90
2023-08-20T19:23:49.690Z,20.85
2023-08-20T19:26:18.772Z,22.73
2023-08-20T19:28:45.548Z,25.23
2023-08-20T19:31:13.341Z,20.80
2023-08-20T19:33:40.284Z,23.63
2023-08-20T19:36:08.496Z,21.77
2023-08-20T19:38:35.355Z,21.98
2023-08-20T19:41:01.977Z,20.27
2023-08-20T19:43:28.762Z,18.70
2023-08-20T19:45:55.849Z,17.65
2023-08-20T19:48:22.688Z,22.05
2023-08-20T19:50:49.471Z,16.67
2023-08-20T19:53:16.274Z,22.95
2023-08-20T19:55:43.242Z,20.92
2023-08-20T19:58:10.371Z,21.77
2023-08-20T20:00:38.353Z,30.35
2023-08-20T20:03:06.716Z,21.45
2023-08-20T20:05:33.384Z,27.70
2023-08-20T20:08:00.617Z,25.35
2023-08-20T20:10:28.095Z,25.02
2023-08-20T20:12:59.904Z,21.20
2023-08-20T20:15:26.632Z,23.42
2023-08-20T20:17:53.903Z,21.80
2023-08-20T20:20:22.354Z,21.38
2023-08-20T20:22:49.242Z,20.20
2023-08-20T20:25:15.938Z,21.73
2023-08-20T20:27:43.161Z,23.40
2023-08-20T20:30:11.640Z,26.48
2023-08-20T20:32:38.777Z,27.10
2023-08-20T20:35:10.149Z,24.33
2023-08-20T20:40:11.755Z,21.20
2023-08-20T20:42:39.257Z,22.30
2023-08-20T20:45:07.430Z,23.63
2023-08-20T20:47:34.409Z,26.88
2023-08-20T20:50:01.157Z,22.30
2023-08-20T20:52:28.111Z,20.70
2023-08-20T20:54:57.907Z,23.65
2023-08-20T20:57:24.708Z,24.95
2023-08-20T20:59:51.412Z,31.83
2023-08-20T21:02:20.135Z,31.60
2023-08-20T21:04:46.883Z,31.60
2023-08-20T21:07:13.487Z,34.85
2023-08-20T21:09:44.048Z,22.05
2023-08-20T21:12:11.422Z,25.92
2023-08-20T21:14:38.184Z,25.77
2023-08-20T21:17:05.196Z,25.95
2023-08-20T21:19:46.442Z,26.63
2023-08-20T21:22:15.588Z,24.50
2023-08-20T21:24:45.479Z,24.70
2023-08-20T21:27:14.679Z,20.42
2023-08-20T21:29:41.757Z,22.70
2023-08-20T21:32:09.555Z,21.02
2023-08-20T21:34:36.208Z,27.73
2023-08-20T21:37:03.021Z,22.40
2023-08-20T21:39:29.626Z,23.52
2023-08-20T21:41:56.356Z,25.85
2023-08-20T21:44:23.164Z,25.90
2023-08-20T21:46:54.007Z,22.63
2023-08-20T21:49:24.440Z,19.30
2023-08-20T21:51:53.993Z,20.95
2023-08-20T21:54:20.848Z,19.17
2023-08-20T21:56:56.294Z,26.98
2023-08-20T21:59:24.052Z,21.23
2023-08-20T22:01:50.900Z,20.98
2023-08-20T22:04:17.941Z,32.72
2023-08-20T22:06:48.960Z,28.00
2023-08-20T22:11:43.080Z,27.95
2023-08-20T22:14:09.859Z,29.23
2023-08-20T22:16:36.609Z,20.23
2023-08-20T22:19:03.436Z,26.55
2023-08-20T22:21:30.178Z,29.67
2023-08-20T22:23:57.024Z,26.05
2023-08-20T22:26:23.871Z,28.60
2023-08-20T22:28:53.565Z,22.88
2023-08-20T22:31:20.517Z,27.48
2023-08-20T22:33:47.182Z,29.73
2023-08-20T22:36:14.249Z,23.77
2023-08-20T22:38:40.866Z,22.50
2023-08-20T22:41:07.958Z,19.50
2023-08-20T22:43:34.773Z,22.73
2023-08-20T22:46:01.476Z,29.02
2023-08-20T22:48:28.162Z,21.08
2023-08-20T22:50:54.937Z,24.45
2023-08-20T22:53:21.895Z,23.50
2023-08-20T22:55:52.435Z,20.27
2023-08-20T22:58:19.843Z,24.55
2023-08-20T23:00:47.354Z,23.70
2023-08-20T23:03:14.387Z,24.17
2023-08-20T23:05:41.718Z,21.00
2023-08-20T23:08:08.955Z,23.85
2023-08-20T23:10:38.406Z,25.77
2023-08-20T23:13:05.561Z,20.30
2023-08-20T23:15:32.363Z,20.23
2023-08-20T23:18:03.317Z,27.27
2023-08-20T23:20:30.872Z,26.88
2023-08-20T23:22:57.583Z,24.35
2023-08-20T23:25:24.290Z,22.63
2023-08-20T23:27:51.395Z,28.65
2023-08-20T23:30:18.329Z,27.35
2023-08-20T23:32:51.616Z,23.80
2023-08-20T23:35:18.438Z,23.08
2023-08-20T23:37:45.243Z,25.77
2023-08-20T23:40:12.827Z,26.92
2023-08-20T23:42:40.307Z,20.45
2023-08-20T23:45:08.047Z,22.73
2023-08-20T23:47:37.331Z,21.52
2023-08-20T23:50:04.542Z,26.25
2023-08-20T23:52:31.276Z,26.83
2023-08-20T23:55:01.454Z,32.35
2023-08-20T23:57:30.914Z,29.07
2023-08-20T23:59:57.694Z,26.15
